Time;durP1;ratioP1;P1;durP2;ratioP2;P2;SDS_P1;SDS_P2;PMS_P1;PMS_P2;Temp;Humidity;BMP_temperature;BMP_pressure;BME280_temperature;BME280_humidity;BME280_pressure;Samples;Min_cycle;Max_cycle;Signal;HPM_P1;HPM_P2
2023/08/04 00:00:46;;;;;;;0.90;0.70;;;24.50;46.90;;;;;;5148502;27;45292;-70
2023/08/04 00:03:12;;;;;;;0.70;0.70;;;24.50;47.00;;;;;;5148079;27;45330;-70
2023/08/04 00:05:39;;;;;;;1.30;0.90;;;24.50;47.00;;;;;;5146913;27;46839;-70
2023/08/04 00:08:06;;;;;;;0.65;0.60;;;24.50;47.00;;;;;;5147899;27;45322;-70
2023/08/04 00:10:34;;;;;;;0.75;0.75;;;24.40;47.00;;;;;;5147942;27;45382;-70
2023/08/04 00:13:01;;;;;;;0.52;0.52;;;24.40;47.10;;;;;;5148322;27;45430;-70
2023/08/04 00:15:28;;;;;;;0.50;0.50;;;24.40;47.10;;;;;;5147485;27;45529;-70
2023/08/04 00:17:55;;;;;;;1.00;0.82;;;24.40;47.10;;;;;;5147796;27;45384;-70
2023/08/04 00:20:22;;;;;;;1.27;0.70;;;24.30;47.10;;;;;;5147889;27;45286;-70
2023/08/04 00:22:49;;;;;;;2.75;0.68;;;24.30;47.10;;;;;;5147988;27;45287;-70
2023/08/04 00:25:16;;;;;;;0.98;0.50;;;24.30;47.70;;;;;;5147388;27;46379;-70
2023/08/04 00:27:44;;;;;;;1.85;0.70;;;24.30;47.10;;;;;;5147667;27;45193;-70
2023/08/04 00:30:12;;;;;;;0.60;0.60;;;24.30;47.10;;;;;;5147836;27;45291;-70
2023/08/04 00:32:39;;;;;;;1.42;0.77;;;24.20;47.10;;;;;;5147985;27;45407;-70
2023/08/04 00:35:07;;;;;;;1.90;0.60;;;24.20;47.10;;;;;;5147359;27;45487;-70
2023/08/04 00:37:34;;;;;;;0.75;0.70;;;24.20;47.20;;;;;;5147702;27;45310;-68
2023/08/04 00:40:01;;;;;;;0.68;0.68;;;24.20;47.20;;;;;;5147677;27;45184;-69
2023/08/04 00:42:27;;;;;;;0.80;0.60;;;24.20;47.20;;;;;;5147874;27;45340;-69
2023/08/04 00:44:56;;;;;;;1.35;0.60;;;24.20;47.30;;;;;;5147378;27;46397;-69
2023/08/04 00:47:24;;;;;;;0.68;0.68;;;24.10;47.20;;;;;;5147721;27;45439;-70
2023/08/04 00:49:51;;;;;;;1.45;0.80;;;24.10;47.20;;;;;;5147641;27;45337;-69
2023/08/04 00:52:18;;;;;;;0.70;0.70;;;24.10;47.30;;;;;;5147512;27;45500;-69
2023/08/04 00:54:45;;;;;;;0.70;0.68;;;24.10;47.30;;;;;;5146923;27;46824;-69
2023/08/04 00:57:12;;;;;;;0.50;0.50;;;24.10;47.30;;;;;;5144812;27;45515;-69
2023/08/04 00:59:39;;;;;;;1.30;0.52;;;24.10;47.30;;;;;;5147502;27;45249;-69
2023/08/04 01:02:07;;;;;;;0.80;0.60;;;24.00;47.40;;;;;;5147444;27;45466;-70
2023/08/04 01:04:37;;;;;;;1.65;0.68;;;24.00;47.40;;;;;;5147137;27;47288;-70
2023/08/04 01:07:11;;;;;;;0.75;0.75;;;24.00;47.40;;;;;;5147348;27;45339;-69
2023/08/04 01:09:42;;;;;;;0.50;0.50;;;24.00;47.40;;;;;;5147423;27;45419;-69
2023/08/04 01:12:12;;;;;;;0.90;0.60;;;24.00;47.40;;;;;;5147425;27;45277;-69
2023/08/04 01:14:39;;;;;;;1.33;0.60;;;23.90;47.30;;;;;;5147001;27;47289;-69
2023/08/04 01:17:23;;;;;;;0.50;0.50;;;23.90;47.40;;;;;;5148118;27;45326;-69
2023/08/04 01:19:50;;;;;;;0.60;0.60;;;23.90;47.50;;;;;;5150830;27;45253;-69
2023/08/04 01:22:18;;;;;;;0.80;0.80;;;23.90;47.50;;;;;;5151196;27;45340;-70
2023/08/04 01:24:45;;;;;;;0.50;0.50;;;23.80;47.50;;;;;;5150449;27;45321;-69
2023/08/04 01:27:13;;;;;;;0.55;0.55;;;23.80;47.60;;;;;;5150773;27;45408;-70
2023/08/04 01:29:41;;;;;;;0.80;0.80;;;23.80;47.50;;;;;;5150702;27;45305;-70
2023/08/04 01:32:08;;;;;;;0.75;0.60;;;23.80;47.60;;;;;;5150968;27;45352;-70
2023/08/04 01:34:34;;;;;;;2.05;0.65;;;23.80;48.10;;;;;;5150553;27;45521;-70
2023/08/04 01:37:01;;;;;;;0.60;0.60;;;23.80;47.60;;;;;;5150695;27;45287;-69
2023/08/04 01:39:29;;;;;;;0.55;0.55;;;23.80;47.70;;;;;;5150484;27;45379;-70
2023/08/04 01:41:56;;;;;;;1.10;0.70;;;23.70;47.70;;;;;;5150646;27;45414;-70
2023/08/04 01:44:23;;;;;;;0.60;0.52;;;23.70;47.70;;;;;;5149991;27;46692;-70
2023/08/04 01:46:50;;;;;;;1.58;0.60;;;23.70;47.80;;;;;;5150343;27;45377;-69
2023/08/04 01:49:17;;;;;;;1.08;0.70;;;23.70;47.70;;;;;;5150338;27;45314;-70
2023/08/04 01:51:44;;;;;;;1.20;0.60;;;23.70;47.80;;;;;;5150539;27;45364;-69
2023/08/04 01:54:10;;;;;;;0.70;0.60;;;23.70;47.90;;;;;;5161933;27;46428;-70
2023/08/04 01:56:39;;;;;;;0.75;0.68;;;23.70;47.80;;;;;;5171161;27;45266;-70
2023/08/04 01:59:05;;;;;;;0.80;0.60;;;23.70;48.50;;;;;;5171504;27;45308;-70
2023/08/04 02:01:32;;;;;;;0.60;0.60;;;23.70;47.90;;;;;;5171302;27;45277;-70
2023/08/04 02:04:05;;;;;;;0.63;0.60;;;23.70;48.00;;;;;;5171031;27;45451;-70
2023/08/04 02:06:31;;;;;;;1.48;0.70;;;23.60;47.90;;;;;;5170886;27;45394;-69
2023/08/04 02:08:58;;;;;;;0.50;0.50;;;23.60;47.90;;;;;;5171251;27;45256;-70
2023/08/04 02:11:25;;;;;;;0.65;0.65;;;23.60;47.90;;;;;;5171182;27;45489;-69
2023/08/04 02:13:53;;;;;;;0.68;0.68;;;23.60;48.00;;;;;;5170917;27;47822;-69
2023/08/04 02:16:20;;;;;;;1.80;0.70;;;23.60;48.00;;;;;;5170878;27;45352;-69
2023/08/04 02:18:47;;;;;;;0.68;0.60;;;23.60;48.10;;;;;;5170842;27;45248;-70
2023/08/04 02:21:13;;;;;;;1.35;0.80;;;23.60;48.10;;;;;;5170973;27;45312;-70
2023/08/04 02:23:40;;;;;;;2.70;0.60;;;23.60;48.10;;;;;;5170715;27;45328;-70
2023/08/04 02:26:07;;;;;;;0.98;0.68;;;23.50;48.10;;;;;;5170691;27;45268;-69
2023/08/04 02:28:34;;;;;;;0.93;0.60;;;23.50;48.10;;;;;;5169801;27;45294;-69
2023/08/04 02:31:02;;;;;;;0.73;0.63;;;23.50;48.20;;;;;;5170816;27;45403;-69
2023/08/04 02:33:29;;;;;;;0.77;0.70;;;23.50;48.10;;;;;;5170017;27;45521;-69
2023/08/04 02:36:00;;;;;;;0.40;0.40;;;23.50;48.10;;;;;;5170264;27;45300;-69
2023/08/04 02:38:27;;;;;;;1.20;0.40;;;23.50;48.20;;;;;;5170774;27;45518;-69
2023/08/04 02:40:54;;;;;;;0.63;0.60;;;23.50;48.20;;;;;;5170695;27;45376;-69
2023/08/04 02:43:20;;;;;;;0.65;0.65;;;23.50;48.20;;;;;;5170327;27;47465;-70
2023/08/04 02:45:48;;;;;;;0.50;0.50;;;23.50;48.20;;;;;;5170489;27;45252;-69
2023/08/04 02:48:17;;;;;;;0.60;0.60;;;23.40;48.20;;;;;;5170490;27;45347;-69
2023/08/04 02:50:43;;;;;;;0.50;0.50;;;23.40;48.20;;;;;;5170583;27;45453;-69
2023/08/04 02:53:10;;;;;;;0.47;0.47;;;23.40;48.30;;;;;;5169807;27;46620;-69
2023/08/04 02:55:37;;;;;;;1.30;0.60;;;23.40;48.30;;;;;;5170054;27;45301;-70
2023/08/04 02:58:04;;;;;;;0.40;0.40;;;23.40;48.30;;;;;;5170350;27;45322;-69
2023/08/04 03:00:31;;;;;;;0.40;0.40;;;23.40;48.30;;;;;;5170489;27;45363;-69
2023/08/04 03:02:59;;;;;;;0.50;0.50;;;23.40;48.40;;;;;;5169903;27;45356;-69
2023/08/04 03:05:28;;;;;;;0.52;0.52;;;23.40;48.40;;;;;;5170071;27;45268;-70
2023/08/04 03:07:54;;;;;;;0.95;0.38;;;23.30;48.40;;;;;;5170678;27;45344;-70
2023/08/04 03:10:21;;;;;;;0.50;0.50;;;23.30;48.30;;;;;;5170247;27;45220;-69
2023/08/04 03:12:48;;;;;;;1.63;0.57;;;23.30;48.40;;;;;;5167281;27;46517;-69
2023/08/04 03:15:15;;;;;;;0.60;0.60;;;23.30;48.40;;;;;;5169941;27;45377;-69
2023/08/04 03:17:42;;;;;;;0.43;0.43;;;23.30;48.50;;;;;;5169678;27;45333;-69
2023/08/04 03:20:10;;;;;;;0.70;0.70;;;23.30;48.40;;;;;;5169957;27;45289;-70
2023/08/04 03:22:38;;;;;;;0.30;0.30;;;23.30;48.50;;;;;;5169448;27;46720;-70
2023/08/04 03:25:06;;;;;;;0.57;0.52;;;23.30;48.50;;;;;;5169584;27;45386;-69
2023/08/04 03:27:33;;;;;;;1.40;0.50;;;23.30;48.50;;;;;;5169860;27;45258;-69
2023/08/04 03:30:00;;;;;;;2.05;0.70;;;23.30;48.50;;;;;;5169988;27;45422;-69
2023/08/04 03:32:27;;;;;;;2.03;0.63;;;23.30;48.50;;;;;;5169958;27;45398;-70
2023/08/04 03:34:53;;;;;;;4.43;0.60;;;23.30;48.60;;;;;;5169455;27;45458;-70
2023/08/04 03:37:20;;;;;;;0.50;0.50;;;23.30;48.60;;;;;;5169834;27;45260;-69
2023/08/04 03:39:48;;;;;;;0.50;0.50;;;23.20;48.40;;;;;;5169633;27;45253;-69
2023/08/04 03:42:15;;;;;;;0.40;0.40;;;23.20;48.50;;;;;;5169497;27;45380;-69
2023/08/04 03:44:42;;;;;;;0.50;0.50;;;23.20;49.10;;;;;;5169130;27;45339;-69
2023/08/04 03:47:09;;;;;;;0.60;0.60;;;23.20;48.60;;;;;;5169505;27;45305;-69
2023/08/04 03:49:36;;;;;;;1.35;0.77;;;23.20;48.60;;;;;;5169737;27;45202;-70
2023/08/04 03:52:03;;;;;;;0.77;0.50;;;23.20;48.60;;;;;;5169391;27;46162;-69
2023/08/04 03:54:29;;;;;;;0.25;0.25;;;23.20;48.60;;;;;;5168430;27;45269;-69
2023/08/04 03:56:58;;;;;;;0.40;0.40;;;23.20;48.60;;;;;;5169462;27;45248;-69
2023/08/04 03:59:24;;;;;;;0.57;0.55;;;23.20;48.70;;;;;;5169612;27;45399;-69
2023/08/04 04:01:51;;;;;;;0.35;0.35;;;23.20;48.60;;;;;;5169098;27;45310;-69
2023/08/04 04:04:18;;;;;;;0.70;0.50;;;23.20;48.70;;;;;;5168772;27;45329;-69
2023/08/04 04:06:45;;;;;;;0.60;0.50;;;23.20;48.70;;;;;;5169274;27;45232;-69
2023/08/04 04:09:14;;;;;;;0.98;0.50;;;23.20;48.70;;;;;;5169363;27;45297;-69
2023/08/04 04:11:41;;;;;;;0.30;0.30;;;23.20;48.70;;;;;;5169128;27;45291;-69
2023/08/04 04:14:11;;;;;;;0.50;0.50;;;23.20;48.70;;;;;;5169006;27;45314;-69
2023/08/04 04:16:38;;;;;;;0.40;0.35;;;23.20;48.70;;;;;;5169144;27;45192;-69
2023/08/04 04:19:05;;;;;;;0.35;0.35;;;23.20;48.70;;;;;;5169878;27;45461;-69
2023/08/04 04:21:31;;;;;;;0.30;0.30;;;23.20;48.70;;;;;;5168861;27;45304;-69
2023/08/04 04:23:58;;;;;;;0.63;0.45;;;23.20;48.70;;;;;;5168805;27;45125;-69
2023/08/04 04:26:25;;;;;;;0.98;0.40;;;23.10;48.60;;;;;;5169095;27;45309;-69
2023/08/04 04:28:52;;;;;;;0.45;0.45;;;23.20;48.70;;;;;;5169007;27;45281;-70
2023/08/04 04:31:20;;;;;;;1.60;0.75;;;23.20;48.60;;;;;;5168735;27;46432;-69
2023/08/04 04:33:47;;;;;;;0.43;0.43;;;23.20;48.60;;;;;;5168718;27;45258;-69
2023/08/04 04:36:14;;;;;;;0.70;0.50;;;23.20;48.70;;;;;;5168682;27;45344;-70
2023/08/04 04:38:40;;;;;;;0.40;0.40;;;23.10;48.60;;;;;;5169077;27;45363;-69
2023/08/04 04:41:07;;;;;;;0.63;0.60;;;23.10;48.70;;;;;;5168536;27;46236;-70
2023/08/04 04:43:35;;;;;;;0.57;0.57;;;23.10;48.70;;;;;;5168527;27;45382;-69
2023/08/04 04:46:02;;;;;;;0.40;0.40;;;23.10;48.70;;;;;;5168801;27;45295;-69
2023/08/04 04:48:30;;;;;;;0.40;0.40;;;23.10;48.70;;;;;;5168705;27;45308;-69
2023/08/04 04:50:57;;;;;;;0.70;0.70;;;23.10;48.70;;;;;;5168357;27;46460;-69
2023/08/04 04:53:24;;;;;;;0.52;0.40;;;23.10;48.70;;;;;;5169004;27;45329;-69
2023/08/04 04:55:51;;;;;;;0.32;0.30;;;23.10;48.70;;;;;;5172346;27;45506;-69
2023/08/04 04:58:18;;;;;;;0.38;0.30;;;23.10;48.70;;;;;;5172458;27;45366;-69
2023/08/04 05:00:44;;;;;;;0.73;0.50;;;23.10;48.70;;;;;;5172025;27;46653;-69
2023/08/04 05:03:11;;;;;;;0.50;0.50;;;23.10;48.70;;;;;;5171948;27;45378;-70
2023/08/04 05:05:40;;;;;;;0.40;0.40;;;23.10;48.70;;;;;;5172187;27;45469;-69
2023/08/04 05:08:07;;;;;;;1.13;0.43;;;23.10;48.70;;;;;;5172282;27;45269;-69
2023/08/04 05:10:33;;;;;;;1.00;0.40;;;23.10;48.70;;;;;;5171962;27;45452;-69
2023/08/04 05:13:00;;;;;;;0.93;0.60;;;23.10;48.70;;;;;;5171859;27;45305;-69
2023/08/04 05:15:27;;;;;;;0.50;0.50;;;23.10;48.80;;;;;;5172189;27;45424;-69
2023/08/04 05:17:54;;;;;;;0.40;0.32;;;23.10;48.80;;;;;;5172258;27;45400;-69
2023/08/04 05:20:21;;;;;;;1.05;0.47;;;23.10;48.80;;;;;;5171740;27;45504;-69
2023/08/04 05:22:50;;;;;;;0.45;0.40;;;23.10;48.70;;;;;;5171861;27;45314;-69
2023/08/04 05:25:17;;;;;;;0.80;0.65;;;23.10;48.70;;;;;;5171725;27;45385;-69
2023/08/04 05:27:44;;;;;;;0.52;0.50;;;23.10;49.40;;;;;;5171948;27;45402;-69
2023/08/04 05:30:11;;;;;;;0.50;0.47;;;23.10;48.80;;;;;;5171552;27;45340;-69
2023/08/04 05:32:38;;;;;;;0.35;0.35;;;23.10;48.70;;;;;;5171501;27;45278;-70
2023/08/04 05:35:05;;;;;;;0.55;0.50;;;23.10;48.70;;;;;;5171422;27;45317;-69
2023/08/04 05:37:33;;;;;;;0.30;0.30;;;23.10;48.80;;;;;;5172023;27;45307;-69
2023/08/04 05:40:02;;;;;;;0.52;0.40;;;23.10;48.70;;;;;;5171470;27;45304;-69
2023/08/04 05:42:29;;;;;;;0.50;0.50;;;23.10;48.70;;;;;;5171440;27;45264;-70
2023/08/04 05:44:56;;;;;;;1.20;0.65;;;23.20;48.70;;;;;;5171480;27;45186;-69
2023/08/04 05:47:25;;;;;;;1.02;0.40;;;23.20;48.70;;;;;;5171657;27;45417;-70
2023/08/04 05:49:52;;;;;;;0.60;0.60;;;23.20;49.30;;;;;;5171553;27;46505;-69
2023/08/04 05:52:19;;;;;;;1.17;0.60;;;23.20;48.60;;;;;;5171294;27;45301;-69
2023/08/04 05:54:46;;;;;;;0.40;0.40;;;23.20;48.60;;;;;;5171168;27;45555;-69
2023/08/04 05:57:14;;;;;;;0.57;0.40;;;23.20;48.70;;;;;;5171435;27;45319;-70
2023/08/04 05:59:41;;;;;;;0.70;0.50;;;23.20;48.60;;;;;;5171272;27;46430;-69
2023/08/04 06:02:07;;;;;;;1.15;0.50;;;23.20;48.60;;;;;;5171175;27;45313;-69
2023/08/04 06:04:35;;;;;;;1.15;0.60;;;23.20;48.60;;;;;;5169771;27;45329;-69
2023/08/04 06:07:02;;;;;;;0.47;0.47;;;23.20;48.60;;;;;;5171427;27;45540;-69
2023/08/04 06:09:28;;;;;;;0.88;0.30;;;23.20;48.70;;;;;;5170842;27;45364;-69
2023/08/04 06:11:55;;;;;;;0.55;0.30;;;23.20;48.60;;;;;;5171030;27;45492;-69
2023/08/04 06:14:23;;;;;;;0.40;0.40;;;23.30;48.60;;;;;;5171016;27;45298;-69
2023/08/04 06:16:50;;;;;;;1.60;0.60;;;23.20;48.50;;;;;;5171307;27;45291;-69
2023/08/04 06:19:17;;;;;;;0.98;0.57;;;23.30;49.20;;;;;;5170534;27;46362;-69
2023/08/04 06:21:44;;;;;;;1.65;0.57;;;23.30;48.50;;;;;;5170804;27;45301;-70
2023/08/04 06:24:11;;;;;;;0.60;0.38;;;23.30;48.50;;;;;;5170891;27;45260;-70
2023/08/04 06:26:38;;;;;;;0.73;0.60;;;23.30;48.50;;;;;;5169440;27;45559;-69
2023/08/04 06:29:05;;;;;;;1.70;0.32;;;23.30;48.50;;;;;;5170813;27;47346;-69
2023/08/04 06:31:33;;;;;;;0.45;0.30;;;23.30;48.50;;;;;;5170591;27;45433;-69
2023/08/04 06:34:00;;;;;;;0.60;0.60;;;23.30;48.50;;;;;;5170911;27;45188;-70
2023/08/04 06:36:27;;;;;;;0.55;0.50;;;23.30;48.50;;;;;;5170913;27;45177;-69
2023/08/04 06:38:54;;;;;;;0.30;0.30;;;23.30;48.50;;;;;;5170359;27;46737;-69
2023/08/04 06:41:21;;;;;;;0.43;0.40;;;23.30;48.50;;;;;;5170501;27;45394;-70
2023/08/04 06:43:48;;;;;;;1.08;0.38;;;23.30;48.50;;;;;;5170115;27;45303;-69
2023/08/04 06:46:14;;;;;;;0.60;0.60;;;23.30;48.50;;;;;;5170763;27;45353;-69
2023/08/04 06:48:42;;;;;;;0.77;0.40;;;23.30;48.50;;;;;;5170235;27;46374;-69
2023/08/04 06:51:09;;;;;;;1.45;0.50;;;23.40;48.60;;;;;;5170269;27;45321;-70
2023/08/04 06:53:36;;;;;;;0.63;0.43;;;23.40;48.60;;;;;;5170033;27;45594;-70
2023/08/04 06:56:03;;;;;;;0.55;0.55;;;23.40;48.60;;;;;;5170481;27;45302;-69
2023/08/04 06:58:30;;;;;;;0.60;0.60;;;23.40;48.60;;;;;;5169957;27;45466;-69
2023/08/04 07:00:57;;;;;;;1.40;0.50;;;23.40;48.60;;;;;;5170212;27;45345;-69
2023/08/04 07:03:24;;;;;;;0.40;0.40;;;23.40;48.60;;;;;;5169939;27;45183;-69
2023/08/04 07:05:52;;;;;;;0.43;0.40;;;23.40;48.60;;;;;;5170297;27;45329;-69
2023/08/04 07:08:18;;;;;;;0.57;0.47;;;23.40;48.60;;;;;;5169822;27;46422;-69
2023/08/04 07:10:45;;;;;;;1.50;0.65;;;23.40;48.60;;;;;;5170023;27;45277;-70
2023/08/04 07:13:12;;;;;;;1.23;0.55;;;23.50;48.60;;;;;;5170174;27;45239;-69
2023/08/04 07:15:39;;;;;;;0.57;0.57;;;23.50;48.50;;;;;;5169803;27;45394;-69
2023/08/04 07:18:06;;;;;;;0.45;0.40;;;23.50;48.50;;;;;;5169852;27;45671;-70
2023/08/04 07:20:33;;;;;;;0.70;0.38;;;23.50;48.40;;;;;;5169820;27;45396;-69
2023/08/04 07:23:01;;;;;;;1.58;0.68;;;23.50;48.40;;;;;;5170232;27;45345;-69
2023/08/04 07:25:28;;;;;;;0.80;0.40;;;23.50;48.50;;;;;;5169859;27;45230;-70
2023/08/04 07:27:54;;;;;;;0.55;0.50;;;23.50;48.40;;;;;;5169763;27;45386;-69
2023/08/04 07:30:21;;;;;;;1.08;0.43;;;23.60;48.40;;;;;;5169782;27;45418;-70
2023/08/04 07:32:48;;;;;;;0.40;0.40;;;23.60;48.30;;;;;;5169871;27;45424;-70
2023/08/04 07:35:15;;;;;;;0.57;0.40;;;23.60;48.40;;;;;;5170010;27;45218;-69
2023/08/04 07:37:44;;;;;;;0.77;0.60;;;23.60;48.40;;;;;;5169467;27;45362;-70
2023/08/04 07:40:13;;;;;;;1.00;0.50;;;23.60;48.30;;;;;;5169529;27;45252;-70
2023/08/04 07:42:40;;;;;;;0.60;0.60;;;23.60;48.30;;;;;;5169633;27;45364;-69
2023/08/04 07:45:08;;;;;;;0.70;0.50;;;23.70;48.30;;;;;;5169502;27;45247;-69
2023/08/04 07:47:35;;;;;;;0.60;0.50;;;23.70;48.20;;;;;;5169088;27;45294;-69
2023/08/04 07:50:02;;;;;;;1.02;0.40;;;23.70;48.50;;;;;;5169296;27;45241;-70
2023/08/04 07:52:28;;;;;;;0.90;0.57;;;23.70;48.80;;;;;;5169339;27;45369;-69
2023/08/04 07:54:55;;;;;;;0.50;0.50;;;23.70;48.20;;;;;;5169021;27;45595;-70
2023/08/04 07:57:23;;;;;;;1.70;0.60;;;23.70;48.20;;;;;;5169166;27;45309;-69
2023/08/04 07:59:51;;;;;;;0.70;0.50;;;23.70;48.20;;;;;;5169292;27;45296;-69
2023/08/04 08:02:18;;;;;;;0.40;0.40;;;23.60;48.10;;;;;;5169025;27;45340;-70
2023/08/04 08:04:44;;;;;;;1.00;0.40;;;23.70;48.10;;;;;;5161279;27;45496;-70
2023/08/04 08:07:11;;;;;;;0.60;0.55;;;23.70;48.10;;;;;;5147971;27;45432;-71
2023/08/04 08:09:38;;;;;;;0.63;0.60;;;23.70;48.10;;;;;;5147891;27;45340;-71
2023/08/04 08:12:06;;;;;;;0.95;0.55;;;23.80;48.20;;;;;;5147994;27;45498;-70
2023/08/04 08:14:34;;;;;;;0.45;0.43;;;23.80;48.20;;;;;;5148728;27;45367;-71
2023/08/04 08:17:01;;;;;;;0.80;0.60;;;23.80;48.30;;;;;;5147734;27;46394;-70
2023/08/04 08:19:28;;;;;;;0.65;0.65;;;23.80;48.30;;;;;;5147892;27;45239;-70
2023/08/04 08:21:54;;;;;;;1.67;0.70;;;23.80;48.30;;;;;;5148171;27;45383;-71
2023/08/04 08:24:21;;;;;;;2.03;0.70;;;23.80;48.30;;;;;;5148292;27;45348;-71
2023/08/04 08:26:48;;;;;;;0.65;0.50;;;23.80;48.30;;;;;;5146854;27;45367;-70
2023/08/04 08:29:15;;;;;;;0.75;0.65;;;23.90;48.50;;;;;;5145290;27;46211;-70
2023/08/04 08:31:43;;;;;;;0.60;0.60;;;24.00;48.50;;;;;;5140091;27;45300;-71
2023/08/04 08:34:10;;;;;;;0.93;0.70;;;24.00;48.50;;;;;;5134243;27;46781;-70
2023/08/04 08:36:37;;;;;;;2.75;0.80;;;24.00;48.40;;;;;;5138377;27;45458;-71
2023/08/04 08:39:04;;;;;;;1.40;0.60;;;24.00;48.60;;;;;;5142635;27;46896;-69
2023/08/04 08:41:31;;;;;;;7.10;0.75;;;24.10;48.60;;;;;;5143543;27;45328;-70
2023/08/04 08:43:58;;;;;;;2.42;0.65;;;24.10;48.80;;;;;;5141774;27;45503;-70
2023/08/04 08:46:25;;;;;;;4.32;1.00;;;24.10;48.70;;;;;;5141961;27;45500;-70
2023/08/04 08:48:53;;;;;;;1.63;0.70;;;24.20;48.90;;;;;;5147345;27;45347;-70
2023/08/04 08:51:22;;;;;;;1.42;0.70;;;24.20;48.90;;;;;;5147216;27;45361;-71
2023/08/04 08:53:49;;;;;;;5.25;0.80;;;24.20;48.90;;;;;;5147322;27;45326;-70
2023/08/04 08:56:15;;;;;;;1.20;0.77;;;24.20;48.90;;;;;;5147620;27;45344;-70
2023/08/04 08:58:42;;;;;;;1.13;0.75;;;24.30;49.10;;;;;;5147411;27;45288;-70
2023/08/04 09:01:09;;;;;;;1.35;0.77;;;24.30;49.10;;;;;;5129872;27;45324;-70
2023/08/04 09:03:36;;;;;;;0.88;0.80;;;24.30;49.20;;;;;;5126261;27;45361;-70
2023/08/04 09:06:05;;;;;;;2.22;1.02;;;24.30;49.10;;;;;;5114101;27;46388;-70
2023/08/04 09:08:32;;;;;;;1.48;0.95;;;24.30;49.20;;;;;;5106031;27;45210;-70
2023/08/04 09:10:59;;;;;;;0.70;0.70;;;24.40;49.00;;;;;;5106285;27;45323;-70
2023/08/04 09:13:27;;;;;;;1.58;0.80;;;24.40;49.10;;;;;;5106263;27;45372;-70
2023/08/04 09:15:54;;;;;;;0.80;0.80;;;24.40;49.00;;;;;;5105729;27;45243;-70
2023/08/04 09:18:25;;;;;;;2.63;0.70;;;24.50;48.90;;;;;;5117964;27;45542;-72
2023/08/04 09:20:58;;;;;;;1.73;1.23;;;24.50;48.80;;;;;;5128563;27;45228;-69
2023/08/04 09:23:28;;;;;;;2.45;0.98;;;24.50;48.90;;;;;;5120829;27;45524;-70
2023/08/04 09:25:54;;;;;;;5.38;0.90;;;24.60;48.90;;;;;;5133046;27;45401;-69
2023/08/04 09:28:21;;;;;;;3.40;0.90;;;24.60;48.90;;;;;;5127829;27;45191;-70
2023/08/04 09:31:01;;;;;;;2.85;1.08;;;24.60;48.90;;;;;;5131517;27;45426;-70
2023/08/04 09:33:27;;;;;;;3.50;0.90;;;24.60;48.90;;;;;;5128778;27;45573;-70
2023/08/04 09:36:04;;;;;;;4.82;0.88;;;24.70;49.00;;;;;;5125879;27;46710;-71
2023/08/04 09:38:39;;;;;;;0.75;0.75;;;24.70;49.00;;;;;;5131755;27;45408;-72
2023/08/04 09:41:07;;;;;;;0.60;0.60;;;24.70;49.10;;;;;;5125827;27;45457;-70
2023/08/04 09:43:34;;;;;;;3.88;0.80;;;24.70;49.10;;;;;;5129995;27;45758;-71
2023/08/04 09:46:03;;;;;;;5.75;1.13;;;24.70;49.10;;;;;;5129232;27;46570;-71
2023/08/04 09:48:29;;;;;;;14.32;2.25;;;24.70;49.00;;;;;;5129963;27;45322;-71
2023/08/04 09:51:07;;;;;;;4.00;1.10;;;24.80;48.90;;;;;;5130112;27;45141;-70
2023/08/04 09:53:42;;;;;;;1.02;0.90;;;24.90;48.80;;;;;;5136085;27;45221;-71
2023/08/04 09:56:09;;;;;;;5.75;1.15;;;24.90;49.40;;;;;;5150355;27;46469;-71
2023/08/04 09:58:37;;;;;;;2.22;1.00;;;24.90;48.70;;;;;;5150396;27;45314;-71
2023/08/04 10:01:04;;;;;;;1.25;0.80;;;24.90;48.80;;;;;;5151010;27;45321;-71
2023/08/04 10:03:31;;;;;;;1.55;0.90;;;24.90;48.80;;;;;;5150715;27;45237;-71
2023/08/04 10:05:59;;;;;;;5.68;0.80;;;25.00;48.70;;;;;;5149804;27;45237;-71
2023/08/04 10:08:27;;;;;;;2.72;1.00;;;25.00;48.60;;;;;;5150563;27;45291;-71
2023/08/04 10:10:55;;;;;;;4.22;1.15;;;25.00;48.40;;;;;;5150323;27;45372;-71
2023/08/04 10:13:22;;;;;;;1.15;0.85;;;25.00;48.40;;;;;;5150603;27;45360;-71
2023/08/04 10:15:49;;;;;;;2.40;0.70;;;25.00;48.20;;;;;;5150409;27;46357;-71
2023/08/04 10:18:16;;;;;;;0.77;0.77;;;25.00;48.40;;;;;;5150263;27;45418;-71
2023/08/04 10:20:43;;;;;;;2.28;0.70;;;25.00;48.50;;;;;;5150334;27;45330;-71
2023/08/04 10:23:11;;;;;;;1.13;1.02;;;25.00;48.60;;;;;;5150718;27;45272;-71
2023/08/04 10:25:38;;;;;;;0.80;0.70;;;25.10;48.80;;;;;;5150215;27;46430;-71
2023/08/04 10:28:06;;;;;;;1.63;0.70;;;25.10;49.40;;;;;;5150256;27;45362;-71
2023/08/04 10:30:33;;;;;;;1.02;0.75;;;25.10;49.00;;;;;;5150362;27;45394;-70
2023/08/04 10:33:09;;;;;;;0.63;0.63;;;25.20;48.90;;;;;;5150573;27;45181;-71
2023/08/04 10:35:36;;;;;;;1.83;0.63;;;25.20;49.00;;;;;;5149938;27;46387;-71
2023/08/04 10:38:03;;;;;;;0.50;0.50;;;25.20;49.00;;;;;;5148730;27;45205;-71
2023/08/04 10:40:31;;;;;;;0.63;0.50;;;25.20;48.50;;;;;;5149930;27;45378;-72
2023/08/04 10:42:59;;;;;;;0.38;0.38;;;25.20;48.60;;;;;;5149996;27;45340;-71
2023/08/04 10:45:43;;;;;;;0.50;0.50;;;25.30;49.10;;;;;;5150069;27;46333;-71
2023/08/04 10:48:09;;;;;;;0.30;0.30;;;25.30;49.00;;;;;;5149229;27;45325;-71
2023/08/04 10:50:36;;;;;;;0.40;0.40;;;25.30;49.00;;;;;;5148214;27;45211;-72
2023/08/04 10:53:03;;;;;;;0.45;0.45;;;25.40;49.10;;;;;;5150000;27;45172;-71
2023/08/04 10:55:30;;;;;;;0.43;0.40;;;25.50;49.20;;;;;;5149810;27;47305;-71
2023/08/04 10:57:57;;;;;;;0.40;0.40;;;25.60;48.80;;;;;;5149451;27;45479;-71
2023/08/04 11:00:24;;;;;;;0.63;0.45;;;25.60;48.80;;;;;;5149303;27;45366;-71
2023/08/04 11:02:52;;;;;;;0.60;0.60;;;25.60;49.30;;;;;;5149526;27;45468;-71
2023/08/04 11:05:22;;;;;;;0.30;0.30;;;25.60;49.40;;;;;;5137037;27;46850;-71
2023/08/04 11:07:49;;;;;;;0.20;0.20;;;25.60;48.20;;;;;;5128383;27;45340;-71
2023/08/04 11:10:15;;;;;;;0.30;0.28;;;25.50;48.00;;;;;;5128841;27;45248;-70
2023/08/04 11:12:42;;;;;;;0.45;0.30;;;25.40;48.10;;;;;;5128385;27;45472;-71
2023/08/04 11:15:10;;;;;;;0.95;0.40;;;25.40;48.30;;;;;;5128386;27;46240;-70
2023/08/04 11:17:39;;;;;;;0.20;0.20;;;25.30;48.40;;;;;;5128825;27;45284;-72
2023/08/04 11:20:11;;;;;;;1.20;0.30;;;25.30;48.40;;;;;;5128379;27;45308;-71
2023/08/04 11:22:38;;;;;;;0.88;0.28;;;25.30;48.40;;;;;;5127828;27;45319;-71
2023/08/04 11:25:07;;;;;;;0.20;0.20;;;25.30;49.00;;;;;;5128633;27;46683;-71
2023/08/04 11:27:34;;;;;;;0.32;0.30;;;25.30;49.50;;;;;;5128501;27;45188;-71
2023/08/04 11:30:00;;;;;;;0.30;0.30;;;25.30;49.70;;;;;;5128950;27;45314;-71
2023/08/04 11:32:27;;;;;;;0.17;0.13;;;25.30;50.20;;;;;;5128433;27;45403;-71
2023/08/04 11:34:54;;;;;;;0.30;0.30;;;25.30;49.90;;;;;;5118541;27;45606;-71
2023/08/04 11:37:23;;;;;;;0.20;0.20;;;25.30;49.80;;;;;;5109469;27;45431;-72
2023/08/04 11:39:51;;;;;;;0.20;0.20;;;25.30;49.80;;;;;;5113723;27;45451;-73
2023/08/04 11:42:18;;;;;;;1.13;0.40;;;25.30;50.60;;;;;;5133833;27;45521;-71
2023/08/04 11:44:45;;;;;;;0.82;0.47;;;25.30;49.80;;;;;;5122880;27;45323;-72
2023/08/04 11:47:13;;;;;;;0.22;0.20;;;25.30;49.80;;;;;;5126044;27;45381;-72
2023/08/04 11:49:40;;;;;;;0.20;0.20;;;25.20;50.20;;;;;;5136158;27;45284;-71
2023/08/04 11:52:08;;;;;;;1.38;0.30;;;25.10;50.90;;;;;;5127086;27;45478;-71
2023/08/04 11:54:37;;;;;;;0.70;0.25;;;25.00;51.20;;;;;;5129430;27;45407;-72
2023/08/04 11:57:04;;;;;;;0.75;0.30;;;25.00;52.20;;;;;;5123589;27;45422;-71
2023/08/04 11:59:31;;;;;;;0.90;0.30;;;24.90;52.60;;;;;;5115068;27;45464;-71
2023/08/04 12:02:07;;;;;;;3.28;0.70;;;24.80;52.90;;;;;;5113122;27;45553;-71
2023/08/04 12:04:34;;;;;;;0.95;0.60;;;24.70;53.80;;;;;;5115434;27;46605;-71
2023/08/04 12:07:01;;;;;;;1.13;0.43;;;24.70;53.60;;;;;;5127924;27;45425;-71
2023/08/04 12:09:28;;;;;;;0.80;0.40;;;24.60;54.50;;;;;;5118271;27;45410;-71
2023/08/04 12:11:56;;;;;;;0.63;0.40;;;24.70;54.50;;;;;;5119016;27;45417;-71
2023/08/04 12:14:23;;;;;;;0.50;0.50;;;24.60;54.90;;;;;;5109073;27;46374;-71
2023/08/04 12:16:54;;;;;;;1.85;0.45;;;24.60;55.50;;;;;;5117162;27;45327;-71
2023/08/04 12:19:21;;;;;;;1.98;0.57;;;24.50;56.20;;;;;;5116064;27;45468;-72
2023/08/04 12:21:47;;;;;;;1.38;0.50;;;24.50;55.90;;;;;;5127453;27;45299;-71
2023/08/04 12:24:14;;;;;;;1.25;0.30;;;24.50;56.20;;;;;;5127338;27;45409;-70
2023/08/04 12:26:42;;;;;;;2.35;2.15;;;24.40;56.00;;;;;;5127288;27;45424;-72
2023/08/04 12:29:10;;;;;;;0.38;0.30;;;24.50;55.70;;;;;;5125319;27;45455;-71
2023/08/04 12:31:37;;;;;;;0.63;0.50;;;24.50;55.30;;;;;;5128238;27;45433;-69
2023/08/04 12:34:04;;;;;;;0.50;0.50;;;24.60;55.00;;;;;;5126854;27;45449;-70
2023/08/04 12:36:31;;;;;;;0.82;0.30;;;24.60;55.40;;;;;;5126587;27;45387;-71
2023/08/04 12:38:58;;;;;;;0.73;0.40;;;24.70;55.10;;;;;;5126420;27;45202;-68
2023/08/04 12:41:25;;;;;;;0.52;0.50;;;24.70;55.30;;;;;;5127288;27;45346;-71
2023/08/04 12:43:52;;;;;;;1.98;0.40;;;24.70;55.30;;;;;;5127172;27;45262;-69
2023/08/04 12:46:21;;;;;;;0.60;0.60;;;24.70;55.60;;;;;;5126580;27;45336;-71
2023/08/04 12:48:47;;;;;;;0.85;0.40;;;24.60;55.80;;;;;;5126032;27;45366;-71